Time;durP1;ratioP1;P1;durP2;ratioP2;P2;SDS_P1;SDS_P2;PMS_P1;PMS_P2;Temp;Humidity;BMP_temperature;BMP_pressure;BME280_temperature;BME280_humidity;BME280_pressure;Samples;Min_cycle;Max_cycle;Signal;HPM_P1;HPM_P2
2024/01/31 00:07:51;;;;;;;;;;;;;;;;;;;;;
2024/01/31 00:11:28;;;;;;;;;;;;;;;;;;;;;
2024/01/31 00:15:46;;;;;;;34.10;22.50;;;;;;;4.40;100.00;101772.13;111662;1251;21984;-81
2024/01/31 00:45:20;;;;;;;;;;;;;;;;;;;;;
2024/01/31 00:49:27;;;;;;;;;;;;;;;;;;;;;
2024/01/31 00:53:34;;;;;;;;;;;;;;;;;;;;;
2024/01/31 00:58:02;;;;;;;;;;;;;;;;;;;;;
2024/01/31 01:06:06;;;;;;;;;;;;;;;;;;;;;
2024/01/31 01:20:53;;;;;;;;;;;;;;;;;;;;;
2024/01/31 01:24:41;;;;;;;26.40;21.60;;;;;;;5.74;100.00;101754.82;107974;1266;3135004;-84
2024/01/31 01:28:58;;;;;;;26.80;21.20;;;;;;;5.26;100.00;101764.23;110397;1266;21997;-81
2024/01/31 01:40:48;;;;;;;25.60;22.10;;;;;;;4.62;100.00;101761.14;108316;1288;23213;-80
2024/01/31 01:44:44;;;;;;;28.30;24.00;;;;;;;4.54;100.00;101771.05;108345;1288;22011;-81
2024/01/31 02:03:58;;;;;;;27.40;23.10;;;;;;;6.01;100.00;101744.47;108186;1283;548488;-81
2024/01/31 02:08:20;;;;;;;;;;;;;;;;;;;;;
2024/01/31 02:12:48;;;;;;;;;;;;;;;;;;;;;
2024/01/31 02:27:04;;;;;;;;;;;;;;;;;;;;;
2024/01/31 02:30:11;;;;;;;;;;;;;;;;;;;;;
2024/01/31 02:33:26;;;;;;;32.30;26.50;;;;;;;5.04;100.00;101752.17;107290;1300;22013;-82
2024/01/31 02:36:20;;;;;;;29.00;25.20;;;;;;;5.05;100.00;101754.08;107242;1300;23905;-80
2024/01/31 02:38:58;;;;;;;35.70;25.60;;;;;;;5.02;100.00;101753.02;107269;1300;22107;-82
2024/01/31 02:42:11;;;;;;;;;;;;;;;;;;;;;
2024/01/31 02:45:03;;;;;;;31.20;25.00;;;;;;;4.89;100.00;101747.58;108299;1283;21996;-81
2024/01/31 02:48:09;;;;;;;;;;;;;;;;;;;;;
2024/01/31 02:51:34;;;;;;;31.20;26.30;;;;;;;4.82;100.00;101748.04;108591;1283;22011;-80
2024/01/31 02:55:06;;;;;;;;;;;;;;;;;;;;;
2024/01/31 02:58:44;;;;;;;36.30;24.50;;;;;;;4.92;100.00;101750.53;109083;1278;21968;-80
2024/01/31 03:03:25;;;;;;;34.60;25.30;;;;;;;4.97;100.00;101754.89;109457;1274;22024;-82
2024/01/31 03:06:54;;;;;;;29.10;23.60;;;;;;;5.04;100.00;101753.38;110389;1267;22017;-81
2024/01/31 03:10:47;;;;;;;;;;;;;;;;;;;;;
2024/01/31 03:14:50;;;;;;;33.20;24.60;;;;;;;5.12;100.00;101752.23;109686;1271;21976;-83
2024/01/31 03:19:07;;;;;;;28.60;22.60;;;;;;;5.11;100.00;101751.70;108571;1287;22508;-83
2024/01/31 03:29:37;;;;;;;;;;;;;;;;;;;;;
2024/01/31 03:33:06;;;;;;;24.80;22.10;;;;;;;5.21;100.00;101745.39;108045;1284;23755;-82
2024/01/31 03:36:03;;;;;;;26.70;22.70;;;;;;;5.31;100.00;101742.16;107834;1291;21976;-82
2024/01/31 03:39:21;;;;;;;35.50;25.10;;;;;;;5.36;100.00;101738.94;107343;1300;22037;-82
2024/01/31 03:42:44;;;;;;;;;;;;;;;;;;;;;
2024/01/31 03:46:30;;;;;;;;;;;;;;;;;;;;;
2024/01/31 03:49:39;;;;;;;;;;;;;;;;;;;;;
2024/01/31 03:56:41;;;;;;;;;;;;;;;;;;;;;
2024/01/31 04:24:06;;;;;;;30.00;25.40;;;;;;;6.89;100.00;101760.31;111112;1261;22000;-82
2024/01/31 04:28:24;;;;;;;33.70;28.20;;;;;;;6.61;100.00;101755.47;112075;1248;21949;-83
2024/01/31 04:40:27;;;;;;;32.40;25.40;;;;;;;6.20;100.00;101756.25;110113;1265;23062;-81
2024/01/31 04:43:45;;;;;;;;;;;;;;;;;;;;;
2024/01/31 04:47:30;;;;;;;;;;;;;;;;;;;;;
2024/01/31 04:51:10;;;;;;;96.10;70.60;;;;;;;6.17;100.00;101746.21;109493;1272;22013;-82
2024/01/31 04:55:21;;;;;;;37.20;33.40;;;;;;;6.15;100.00;101743.10;109324;1272;22004;-83
2024/01/31 04:59:18;;;;;;;;;;;;;;;;;;;;;
2024/01/31 05:13:41;;;;;;;24.70;22.10;;;;;;;7.70;100.00;101756.66;108242;1285;548057;-83
2024/01/31 05:18:07;;;;;;;29.60;24.50;;;;;;;7.56;100.00;101762.13;104204;1265;23721;-82
2024/01/31 05:22:14;;;;;;;;;;;;;;;;;;;;;
2024/01/31 05:26:09;;;;;;;;;;;;;;;;;;;;;
2024/01/31 05:33:29;;;;;;;;;;;;;;;;;;;;;
2024/01/31 05:37:18;;;;;;;30.40;22.40;;;;;;;6.60;100.00;101780.20;108155;1290;22186;-83
2024/01/31 05:40:43;;;;;;;;;;;;;;;;;;;;;
2024/01/31 05:44:35;;;;;;;24.70;22.00;;;;;;;6.50;100.00;101787.27;108079;1290;22038;-83
2024/01/31 05:51:54;;;;;;;;;;;;;;;;;;;;;
2024/01/31 05:55:18;;;;;;;;;;;;;;;;;;;;;
2024/01/31 05:59:10;;;;;;;;;;;;;;;;;;;;;
2024/01/31 06:03:30;;;;;;;;;;;;;;;;;;;;;
2024/01/31 06:10:53;;;;;;;29.40;25.90;;;;;;;6.34;100.00;101784.13;109641;1269;22036;-79
2024/01/31 06:15:24;;;;;;;37.70;29.20;;;;;;;6.35;100.00;101783.77;109466;1272;21984;-80
2024/01/31 06:18:44;;;;;;;32.40;25.80;;;;;;;6.37;100.00;101783.45;109297;1276;22003;-81
2024/01/31 06:21:41;;;;;;;32.00;28.10;;;;;;;6.38;100.00;101774.45;109069;1278;22001;-81
2024/01/31 06:25:46;;;;;;;29.00;24.70;;;;;;;6.47;100.00;101788.14;108803;1278;21996;-81
2024/01/31 06:32:03;;;;;;;35.10;27.90;;;;;;;6.38;100.00;101795.90;108440;1288;22491;-80
2024/01/31 06:34:53;;;;;;;34.40;27.20;;;;;;;6.42;100.00;101803.86;108394;1288;22870;-81
2024/01/31 06:37:37;;;;;;;35.20;27.50;;;;;;;6.47;100.00;101805.08;108449;1288;22023;-81
2024/01/31 06:40:58;;;;;;;32.90;27.70;;;;;;;6.48;100.00;101799.72;108417;1286;22001;-81
2024/01/31 06:44:30;;;;;;;44.20;32.70;;;;;;;6.45;100.00;101806.63;108373;1286;22049;-83
2024/01/31 06:47:23;;;;;;;37.90;29.30;;;;;;;6.43;100.00;101808.01;108066;1289;23889;-81
2024/01/31 06:49:56;;;;;;;37.20;28.90;;;;;;;6.46;100.00;101808.19;108354;1289;23733;-82
2024/01/31 06:52:51;;;;;;;37.10;30.30;;;;;;;6.48;100.00;101812.17;108343;1287;22000;-82
2024/01/31 06:55:55;;;;;;;40.60;31.30;;;;;;;6.45;100.00;101816.66;108732;1280;23664;-80
2024/01/31 06:58:58;;;;;;;50.70;32.00;;;;;;;6.45;100.00;101818.90;108697;1280;23113;-82
2024/01/31 07:02:26;;;;;;;34.60;28.80;;;;;;;6.48;100.00;101820.82;108930;1280;22470;-81
2024/01/31 07:06:11;;;;;;;;;;;;;;;;;;;;;
2024/01/31 07:10:07;;;;;;;;;;;;;;;;;;;;;
2024/01/31 07:13:25;;;;;;;49.10;31.80;;;;;;;6.54;100.00;101822.20;109041;1278;23106;-79
2024/01/31 07:16:59;;;;;;;53.90;30.40;;;;;;;6.58;100.00;101819.98;108700;1282;22759;-79
2024/01/31 07:24:41;;;;;;;;;;;;;;;;;;;;;
2024/01/31 07:28:27;;;;;;;;;;;;;;;;;;;;;
2024/01/31 07:31:48;;;;;;;;;;;;;;;;;;;;;
2024/01/31 07:35:00;;;;;;;47.00;29.70;;;;;;;6.43;100.00;101835.34;108668;1283;22350;-80
2024/01/31 07:38:37;;;;;;;53.50;31.60;;;;;;;6.50;100.00;101838.81;108389;1283;22566;-79
2024/01/31 07:42:43;;;;;;;28.60;20.50;;;;;;;6.57;100.00;101837.97;107963;1290;22756;-77
2024/01/31 08:01:02;;;;;;;46.50;28.60;;;;;;;8.57;100.00;101831.75;111658;1260;23604;-79
2024/01/31 08:05:18;;;;;;;;;;;;;;;;;;;;;
2024/01/31 08:09:25;;;;;;;53.30;31.60;;;;;;;7.62;100.00;101836.95;109945;1266;22067;-79
2024/01/31 08:13:12;;;;;;;44.50;33.10;;;;;;;7.39;100.00;101835.43;110038;1264;23632;-81
2024/01/31 08:16:53;;;;;;;;;;;;;;;;;;;;;
2024/01/31 08:19:47;;;;;;;57.50;34.80;;;;;;;7.28;100.00;101849.12;110908;1260;21999;-77
2024/01/31 08:23:16;;;;;;;;;;;;;;;;;;;;;
2024/01/31 08:26:44;;;;;;;48.40;32.60;;;;;;;7.04;100.00;101839.94;109880;1268;22973;-76
2024/01/31 08:33:40;;;;;;;;;;;;;;;;;;;;;
2024/01/31 08:36:40;;;;;;;42.70;29.80;;;;;;;7.11;100.00;101851.02;108715;1275;22816;-77
2024/01/31 08:43:55;;;;;;;;;;;;;;;;;;;;;
2024/01/31 08:47:23;;;;;;;42.90;35.70;;;;;;;7.24;100.00;101853.61;109168;1270;23053;-77
2024/01/31 08:51:35;;;;;;;;;;;;;;;;;;;;;
2024/01/31 08:54:49;;;;;;;;;;;;;;;;;;;;;
2024/01/31 08:58:06;;;;;;;42.30;32.60;;;;;;;7.51;100.00;101856.39;110109;1264;21956;-77
2024/01/31 09:04:59;;;;;;;38.30;30.30;;;;;;;7.55;100.00;101869.02;109519;1266;21998;-77
2024/01/31 09:07:43;;;;;;;40.10;30.50;;;;;;;7.60;100.00;101867.29;109350;1270;22999;-79
2024/01/31 09:11:04;;;;;;;;;;;;;;;;;;;;;
2024/01/31 09:14:18;;;;;;;30.30;26.60;;;;;;;7.68;100.00;101860.35;109532;1270;21983;-77
2024/01/31 09:17:47;;;;;;;;;;;;;;;;;;;;;
2024/01/31 09:21:06;;;;;;;;;;;;;;;;;;;;;
2024/01/31 09:24:22;;;;;;;31.80;28.10;;;;;;;7.63;100.00;101853.60;111073;1251;22637;-78
2024/01/31 09:27:53;;;;;;;32.30;28.30;;;;;;;7.72;100.00;101874.55;111052;1255;23042;-79
2024/01/31 09:31:40;;;;;;;32.10;27.30;;;;;;;7.72;100.00;101874.02;110735;1259;23044;-77
2024/01/31 09:34:45;;;;;;;30.30;26.90;;;;;;;7.72;100.00;101875.40;110656;1259;23019;-76
2024/01/31 09:38:28;;;;;;;28.20;23.90;;;;;;;7.71;100.00;101873.52;110734;1256;22368;-78
2024/01/31 09:41:49;;;;;;;35.50;28.00;;;;;;;7.75;100.00;101878.70;111102;1249;21980;-78
2024/01/31 09:45:39;;;;;;;32.60;26.40;;;;;;;7.84;100.00;101882.15;110830;1257;21973;-77
2024/01/31 09:49:37;;;;;;;35.00;28.10;;;;;;;7.93;100.00;101873.81;110414;1263;21971;-78
2024/01/31 09:53:58;;;;;;;;;;;;;;;;;;;;;
2024/01/31 09:56:43;;;;;;;34.10;27.90;;;;;;;8.59;100.00;101866.11;109771;1269;22009;-76
2024/01/31 09:59:59;;;;;;;32.50;27.90;;;;;;;8.93;100.00;101862.79;109506;1269;21983;-78
2024/01/31 10:02:59;;;;;;;;;;;;;;;;;;;;;
2024/01/31 10:06:16;;;;;;;;;;;;;;;;;;;;;
2024/01/31 10:10:47;;;;;;;31.00;22.90;;;;;;;9.96;100.00;101853.18;110833;1258;22031;-78
2024/01/31 10:13:58;;;;;;;;;;;;;;;;;;;;;
2024/01/31 10:17:09;;;;;;;27.60;21.80;;;;;;;10.03;100.00;101842.48;110839;1258;22420;-78
2024/01/31 10:20:27;;;;;;;25.40;22.80;;;;;;;9.82;100.00;101840.13;110750;1257;23872;-77
2024/01/31 10:24:36;;;;;;;28.80;22.10;;;;;;;9.49;100.00;101838.20;111754;1246;23005;-77
2024/01/31 10:28:38;;;;;;;;;;;;;;;;;;;;;
2024/01/31 10:32:09;;;;;;;;;;;;;;;;;;;;;
2024/01/31 10:36:27;;;;;;;28.20;23.60;;;;;;;8.81;100.00;101840.83;112157;1246;22723;-76
2024/01/31 10:39:45;;;;;;;25.70;20.70;;;;;;;8.62;100.00;101821.16;111780;1238;23021;-76
2024/01/31 10:43:08;;;;;;;27.70;24.00;;;;;;;8.65;100.00;101829.64;111311;1246;22411;-78
2024/01/31 10:49:27;;;;;;;24.90;21.80;;;;;;;8.75;100.00;101830.80;110961;1257;23598;-78
2024/01/31 10:53:33;;;;;;;24.30;20.80;;;;;;;8.77;100.00;101826.98;110824;1257;24383;-76
2024/01/31 10:56:45;;;;;;;22.30;19.90;;;;;;;8.76;100.00;101820.03;110234;1266;23672;-77
2024/01/31 11:00:08;;;;;;;23.70;20.60;;;;;;;8.83;100.00;101817.20;109861;1268;23725;-77
2024/01/31 11:04:39;;;;;;;;;;;;;;;;;;;;;
2024/01/31 11:07:39;;;;;;;25.80;18.60;;;;;;;8.76;100.00;101816.38;109444;1271;22239;-78
2024/01/31 11:11:04;;;;;;;;;;;;;;;;;;;;;
2024/01/31 11:13:56;;;;;;;21.40;19.20;;;;;;;8.75;100.00;101809.98;109172;1274;23716;-78
2024/01/31 11:17:37;;;;;;;;;;;;;;;;;;;;;
2024/01/31 11:21:35;;;;;;;23.50;21.10;;;;;;;8.78;100.00;101813.94;108967;1274;21984;-77
2024/01/31 11:29:37;;;;;;;;;;;;;;;;;;;;;
2024/01/31 11:33:45;;;;;;;37.90;31.10;;;;;;;8.65;100.00;101807.44;109313;1273;22012;-76
2024/01/31 11:41:54;;;;;;;36.30;28.00;;;;;;;8.88;100.00;101806.76;108110;1281;420793;-77
2024/01/31 11:45:01;;;;;;;47.70;32.40;;;;;;;8.87;100.00;101779.69;108504;1281;24213;-75
2024/01/31 11:47:55;;;;;;;46.40;30.90;;;;;;;9.17;100.00;101799.75;108873;1268;23132;-76
2024/01/31 11:51:14;;;;;;;35.40;26.50;;;;;;;9.26;100.00;101801.74;109014;1273;22013;-75
2024/01/31 11:54:52;;;;;;;;;;;;;;;;;;;;;
2024/01/31 11:57:58;;;;;;;27.00;21.20;;;;;;;9.24;100.00;101816.36;108869;1277;23154;-77
2024/01/31 12:01:04;;;;;;;;;;;;;;;;;;;;;
2024/01/31 12:08:28;;;;;;;;;;;;;;;;;;;;;
2024/01/31 12:12:31;;;;;;;37.50;21.60;;;;;;;9.12;100.00;101807.07;110129;1265;23110;-82
2024/01/31 12:17:05;;;;;;;;;;;;;;;;;;;;;
2024/01/31 12:24:53;;;;;;;30.80;24.90;;;;;;;9.10;100.00;101798.77;109116;1276;22037;-87
2024/01/31 12:28:11;;;;;;;31.10;24.90;;;;;;;9.16;100.00;101798.70;108901;1276;22048;-79
2024/01/31 12:32:10;;;;;;;34.00;24.60;;;;;;;9.21;100.00;101801.10;109039;1276;21997;-79
2024/01/31 12:56:35;;;;;;;;;;;;;;;;;;;;;
2024/01/31 13:01:14;;;;;;;;;;;;;;;;;;;;;
2024/01/31 13:05:25;;;;;;;;;;;;;;;;;;;;;
2024/01/31 13:09:44;;;;;;;21.40;16.40;;;;;;;9.05;100.00;101771.88;109678;1269;22062;-76
2024/01/31 13:12:51;;;;;;;;;;;;;;;;;;;;;
2024/01/31 13:50:44;;;;;;;;;;;;;;;;;;;;;
2024/01/31 13:54:32;;;;;;;15.00;12.20;;;;;;;8.49;100.00;101747.15;111473;1252;23002;-77
2024/01/31 13:59:04;;;;;;;18.30;13.70;;;;;;;8.39;100.00;101742.70;110304;1262;23737;-75
2024/01/31 14:11:33;;;;;;;;;;;;;;;;;;;;;
2024/01/31 14:15:00;;;;;;;;;;;;;;;;;;;;;
2024/01/31 14:32:53;;;;;;;11.30;7.10;;;;;;;9.11;100.00;101728.24;107637;1249;22092;-77
2024/01/31 14:37:31;;;;;;;11.00;6.10;;;;;;;8.69;100.00;101740.05;111610;1250;21966;-77
2024/01/31 14:42:25;;;;;;;;;;;;;;;;;;;;;
2024/01/31 15:09:19;;;;;;;11.20;8.40;;;;;;;8.71;100.00;101717.13;106354;1261;22441;-78
2024/01/31 15:13:52;;;;;;;11.80;10.00;;;;;;;8.24;100.00;101721.10;109756;1270;21987;-76
2024/01/31 15:21:29;;;;;;;;;;;;;;;;;;;;;
2024/01/31 15:43:08;;;;;;;;;;;;;;;;;;;;;
2024/01/31 15:47:26;;;;;;;17.40;12.90;;;;;;;8.43;100.00;101740.41;111164;1255;23633;-78
2024/01/31 15:55:44;;;;;;;;;;;;;;;;;;;;;
2024/01/31 15:59:24;;;;;;;;;;;;;;;;;;;;;
2024/01/31 16:02:57;;;;;;;;;;;;;;;;;;;;;
2024/01/31 16:06:41;;;;;;;;;;;;;;;;;;;;;
2024/01/31 16:10:39;;;;;;;10.10;8.60;;;;;;;7.27;100.00;101750.59;109275;1273;22804;-77
2024/01/31 16:14:08;;;;;;;13.60;9.30;;;;;;;7.17;100.00;101753.38;109306;1273;22024;-77
2024/01/31 16:20:29;;;;;;;9.00;7.00;;;;;;;7.02;100.00;101756.50;108786;1277;22004;-82
2024/01/31 16:35:27;;;;;;;10.30;6.30;;;;;;;8.33;100.00;101738.19;110741;1253;547848;-78
2024/01/31 16:44:40;;;;;;;;;;;;;;;;;;;;;
2024/01/31 16:57:30;;;;;;;;;;;;;;;;;;;;;
2024/01/31 17:09:45;;;;;;;;;;;;;;;;;;;;;
2024/01/31 17:25:25;;;;;;;;;;;;;;;;;;;;;
2024/01/31 17:29:39;;;;;;;;;;;;;;;;;;;;;
2024/01/31 17:34:39;;;;;;;;;;;;;;;;;;;;;
2024/01/31 17:37:56;;;;;;;;;;;;;;;;;;;;;
2024/01/31 17:41:50;;;;;;;;;;;;;;;;;;;;;
2024/01/31 17:45:48;;;;;;;;;;;;;;;;;;;;;
2024/01/31 18:04:42;;;;;;;24.90;18.90;;;;;;;7.57;100.00;101670.96;105092;1262;23288;-80
2024/01/31 18:08:01;;;;;;;;;;;;;;;;;;;;;
2024/01/31 18:15:12;;;;;;;21.60;16.00;;;;;;;6.66;100.00;101662.73;109211;1273;21977;-77
2024/01/31 18:18:38;;;;;;;;;;;;;;;;;;;;;
2024/01/31 18:23:01;;;;;;;20.10;14.60;;;;;;;6.30;100.00;101661.88;109129;1275;21977;-77
2024/01/31 18:46:25;;;;;;;20.40;14.40;;;;;;;6.80;100.00;101639.37;110176;1267;23849;-76
2024/01/31 18:50:09;;;;;;;21.70;14.80;;;;;;;6.55;100.00;101640.27;110117;1262;22032;-77
2024/01/31 18:58:58;;;;;;;22.50;17.80;;;;;;;6.16;100.00;101644.06;109262;1273;23904;-77
2024/01/31 19:14:09;;;;;;;;;;;;;;;;;;;;;
2024/01/31 19:17:53;;;;;;;30.30;22.10;;;;;;;7.06;100.00;101593.23;102355;1278;24413;-78
2024/01/31 19:21:35;;;;;;;33.00;23.20;;;;;;;6.44;100.00;101594.95;109433;1273;23709;-78
2024/01/31 19:24:40;;;;;;;34.10;22.50;;;;;;;6.21;100.00;101595.84;108888;1278;23708;-77
2024/01/31 19:28:28;;;;;;;144.20;113.80;;;;;;;5.96;100.00;101593.20;108950;1278;22425;-77
2024/01/31 19:39:17;;;;;;;;;;;;;;;;;;;;;
2024/01/31 19:43:00;;;;;;;;;;;;;;;;;;;;;
2024/01/31 19:46:53;;;;;;;34.40;28.00;;;;;;;5.29;100.00;101573.70;108765;1275;21992;-79
2024/01/31 19:50:38;;;;;;;26.70;20.40;;;;;;;5.31;100.00;101572.84;108895;1278;21989;-78
2024/01/31 19:54:11;;;;;;;24.30;18.00;;;;;;;5.32;100.00;101561.11;109399;1273;23047;-77
2024/01/31 19:56:54;;;;;;;29.70;21.70;;;;;;;5.36;100.00;101555.08;109304;1273;23705;-77
2024/01/31 20:00:11;;;;;;;27.90;24.20;;;;;;;5.41;100.00;101555.61;109356;1273;21980;-77
2024/01/31 20:03:08;;;;;;;69.00;46.00;;;;;;;5.44;100.00;101553.36;108846;1280;23609;-77
2024/01/31 20:06:39;;;;;;;52.70;35.70;;;;;;;5.45;100.00;101547.34;108630;1280;21976;-79
2024/01/31 20:10:54;;;;;;;66.20;46.20;;;;;;;5.67;100.00;101539.77;107647;1292;548445;-79
2024/01/31 20:15:26;;;;;;;50.10;36.30;;;;;;;5.60;100.00;101537.86;109431;1272;21985;-79
2024/01/31 20:19:08;;;;;;;154.20;122.10;;;;;;;5.47;100.00;101526.62;110216;1266;21981;-79
2024/01/31 20:22:47;;;;;;;45.20;34.10;;;;;;;5.41;100.00;101521.77;109987;1268;22015;-77
2024/01/31 20:26:53;;;;;;;;;;;;;;;;;;;;;
2024/01/31 20:36:00;;;;;;;33.30;22.90;;;;;;;5.40;100.00;101492.77;108435;1272;23122;-78
2024/01/31 20:39:49;;;;;;;38.70;25.80;;;;;;;5.43;100.00;101486.90;107955;1288;22230;-78
2024/01/31 20:42:44;;;;;;;32.70;23.60;;;;;;;5.48;100.00;101479.32;108124;1289;22479;-78
2024/01/31 20:45:53;;;;;;;36.30;26.40;;;;;;;5.52;100.00;101470.68;108102;1290;22008;-78
2024/01/31 20:48:55;;;;;;;37.90;27.50;;;;;;;5.56;100.00;101465.00;108085;1279;22013;-78
2024/01/31 20:51:34;;;;;;;44.90;36.30;;;;;;;5.57;100.00;101454.80;108203;1288;22583;-78
2024/01/31 20:55:02;;;;;;;44.40;33.10;;;;;;;5.57;100.00;101450.31;108204;1287;22007;-78
2024/01/31 20:57:50;;;;;;;34.50;26.70;;;;;;;5.59;100.00;101448.94;108583;1281;22467;-77
2024/01/31 21:01:14;;;;;;;31.50;23.00;;;;;;;5.64;100.00;101451.35;108744;1281;22951;-77
2024/01/31 21:05:21;;;;;;;;;;;;;;;;;;;;;
2024/01/31 21:09:05;;;;;;;39.60;25.70;;;;;;;5.63;100.00;101465.16;108412;1285;22487;-78
2024/01/31 21:13:08;;;;;;;;;;;;;;;;;;;;;
2024/01/31 21:20:57;;;;;;;;;;;;;;;;;;;;;
2024/01/31 21:25:13;;;;;;;;;;;;;;;;;;;;;
2024/01/31 21:28:52;;;;;;;41.10;29.20;;;;;;;5.53;100.00;101435.80;108431;1285;21994;-78
2024/01/31 21:32:03;;;;;;;24.90;18.50;;;;;;;5.54;100.00;101431.83;108448;1285;21989;-76
2024/01/31 21:34:58;;;;;;;15.30;12.40;;;;;;;5.54;100.00;101427.70;108063;1290;23742;-76
2024/01/31 21:38:36;;;;;;;;;;;;;;;;;;;;;
2024/01/31 21:42:03;;;;;;;13.80;11.50;;;;;;;5.37;100.00;101404.55;108329;1276;23752;-78
2024/01/31 21:45:30;;;;;;;15.60;12.60;;;;;;;5.42;100.00;101407.48;108436;1286;23008;-78
2024/01/31 21:48:50;;;;;;;16.40;13.60;;;;;;;5.42;100.00;101400.41;108691;1281;21988;-77
2024/01/31 21:51:30;;;;;;;13.00;11.10;;;;;;;5.41;100.00;101389.20;108584;1283;22747;-77
2024/01/31 21:54:37;;;;;;;13.30;10.90;;;;;;;5.41;100.00;101376.25;108397;1287;24368;-78
2024/01/31 21:57:38;;;;;;;;;;;;;;;;;;;;;
2024/01/31 22:00:39;;;;;;;11.60;10.00;;;;;;;5.42;100.00;101348.79;108455;1285;22163;-77
2024/01/31 22:03:32;;;;;;;15.00;12.30;;;;;;;5.51;100.00;101345.52;108533;1278;21985;-77
2024/01/31 22:07:04;;;;;;;15.70;12.90;;;;;;;5.52;100.00;101334.27;108763;1276;22207;-78
2024/01/31 22:11:08;;;;;;;16.30;13.20;;;;;;;5.46;100.00;101327.38;109182;1273;22025;-78
2024/01/31 22:15:08;;;;;;;13.40;11.70;;;;;;;5.42;100.00;101311.34;110478;1262;22438;-77
2024/01/31 22:18:35;;;;;;;12.10;10.90;;;;;;;5.39;100.00;101304.77;110297;1262;23616;-77
2024/01/31 22:21:41;;;;;;;12.00;10.70;;;;;;;5.40;100.00;101298.73;110598;1260;23704;-77
2024/01/31 22:24:34;;;;;;;11.20;10.00;;;;;;;5.41;100.00;101300.64;110565;1261;21966;-76
2024/01/31 22:27:43;;;;;;;9.80;8.90;;;;;;;5.42;100.00;101294.41;110597;1260;21964;-78
2024/01/31 22:30:54;;;;;;;12.70;10.50;;;;;;;5.37;100.00;101290.63;110377;1262;21969;-77
2024/01/31 22:33:51;;;;;;;10.60;9.60;;;;;;;5.30;100.00;101285.11;110508;1261;23171;-76
2024/01/31 22:37:10;;;;;;;10.00;9.00;;;;;;;5.21;100.00;101283.74;109676;1267;22505;-77
2024/01/31 22:40:16;;;;;;;11.00;9.90;;;;;;;5.11;100.00;101282.02;109968;1261;22440;-78
2024/01/31 22:43:56;;;;;;;;;;;;;;;;;;;;;
2024/01/31 22:47:38;;;;;;;11.40;10.20;;;;;;;4.73;100.00;101268.39;109417;1272;23183;-78
2024/01/31 22:50:44;;;;;;;11.00;9.90;;;;;;;4.74;100.00;101280.98;109175;1272;21992;-77
2024/01/31 22:54:01;;;;;;;10.20;9.10;;;;;;;4.64;100.00;101278.89;109271;1267;22443;-76
2024/01/31 22:57:43;;;;;;;13.00;10.20;;;;;;;4.56;100.00;101272.15;109896;1267;21980;-77
2024/01/31 23:01:55;;;;;;;16.60;12.70;;;;;;;4.45;100.00;101259.89;109374;1269;23103;-75
2024/01/31 23:05:13;;;;;;;23.30;16.90;;;;;;;4.37;100.00;101252.48;109136;1274;24413;-76
2024/01/31 23:08:45;;;;;;;24.30;17.60;;;;;;;4.33;100.00;101239.71;108834;1277;21986;-75
2024/01/31 23:12:19;;;;;;;16.30;12.10;;;;;;;4.21;100.00;101228.65;108433;1276;23065;-76
2024/01/31 23:15:37;;;;;;;13.90;12.40;;;;;;;4.15;100.00;101227.27;108795;1277;22024;-77
2024/01/31 23:19:03;;;;;;;22.70;16.90;;;;;;;4.09;100.00;101229.14;108735;1278;23774;-77
2024/01/31 23:22:11;;;;;;;36.70;25.90;;;;;;;4.03;100.00;101228.08;108611;1278;23698;-77
2024/01/31 23:25:57;;;;;;;15.40;13.80;;;;;;;3.99;100.00;101229.45;108570;1279;21994;-76
2024/01/31 23:30:18;;;;;;;18.80;16.80;;;;;;;3.96;100.00;101221.68;108618;1279;23100;-76
2024/01/31 23:34:17;;;;;;;;;;;;;;;;;;;;;
2024/01/31 23:37:38;;;;;;;31.60;25.40;;;;;;;3.87;100.00;101205.13;108087;1290;22020;-74
2024/01/31 23:40:32;;;;;;;23.50;18.50;;;;;;;3.86;100.00;101197.89;108172;1287;23725;-76
2024/01/31 23:48:53;;;;;;;24.20;19.60;;;;;;;3.71;100.00;101177.88;108224;1282;24517;-77
2024/01/31 23:53:29;;;;;;;;;;;;;;;;;;;;;
2024/01/31 23:57:15;;;;;;;23.30;20.10;;;;;;;3.48;100.00;101161.08;108228;1284;23738;-77
